Accueil
METAR-TAF:

METAR-TAF

Aéroports :

Aéroport de Maastricht-Aix-la-Chapelle

Maastricht Aix-la-Chapelle, Pays-Bas

latitude: 50-55N, longitude: 005-47E, altitude: 114 m

Observation

Le bulletin a été fait il y a 20 minutes, à 19:25 UTC
Vent 2 kt de direction variable
Température 9°C
Humidité 49%
Pression 1018 hPa
Visibilité 10 km ou plus

METAR: EHBK 071925Z AUTO VRB02KT 9999 NCD 09/M01 Q1018 NOSIG

Heure: 21:45 (19:45 UTC)

Prévision

Le bulletin a été fait il y a 2 heures et 34 minutes, à 17:11 UTC
Prévision valable du 07 à 18 UTC au 08 à 24 UTC
Vent 10 kt de ouest
Visibilité 10 km ou plus
Quelques nuages à une hauteur de 4000 ft
Evoluant progressivement
du 07 à 18 UTC au 07 à 20 UTC
Vent 3 kt de direction variable
Evoluant progressivement
du 08 à 05 UTC au 08 à 08 UTC
Vent 12 kt de sud

TAF: EHBK 071711Z 0718/0824 27010KT 9999 FEW040 BECMG 0718/0720 VRB03KT BECMG 0805/0808 18012KT

Observations et prévisions météorologiques de plus de 4000 aéroports (messages METAR et TAF).

Les stations disponibles sont représentées par des disques jaunes et rouges sur la carte.

Passer la souris dessus pour voir le nom de la station.

Cliquer dessus pour voir les observations et prévisions météorologiques.

Pour changer de carte: cliquez sur les boutons verts avec une croix noire pour zoomer, sur le bouton vert avec un tiret pour effectuer un zoom arrière, ou sur les flèches vertes pour les cartes adjacentes.


METAR-TAF: